createdAt,value
2023-04-02T00:01:01.354Z,1.13
2023-04-02T00:03:43.888Z,1.05
2023-04-02T00:06:34.441Z,1.00
2023-04-02T00:09:23.476Z,0.90
2023-04-02T00:11:56.240Z,0.85
2023-04-02T00:14:35.124Z,0.90
2023-04-02T00:17:07.436Z,0.85
2023-04-02T00:19:51.805Z,1.07
2023-04-02T00:22:31.377Z,0.90
2023-04-02T00:25:12.606Z,0.88
2023-04-02T00:27:45.747Z,0.90
2023-04-02T00:30:18.253Z,0.80
2023-04-02T00:32:51.773Z,0.85
2023-04-02T00:35:28.544Z,0.88
2023-04-02T00:38:02.262Z,0.90
2023-04-02T00:40:34.666Z,0.80
2023-04-02T00:43:08.425Z,0.93
2023-04-02T00:45:41.551Z,0.85
2023-04-02T00:48:45.064Z,0.85
2023-04-02T00:51:26.238Z,0.88
2023-04-02T00:54:04.086Z,0.90
2023-04-02T00:56:48.658Z,0.70
2023-04-02T00:59:28.958Z,0.70
2023-04-02T01:02:26.617Z,0.82
2023-04-02T01:05:15.821Z,0.70
2023-04-02T01:07:58.830Z,0.70
2023-04-02T01:11:03.431Z,0.75
2023-04-02T01:13:41.929Z,0.60
2023-04-02T01:16:26.004Z,0.80
2023-04-02T01:19:21.184Z,0.75
2023-04-02T01:22:22.944Z,0.90
2023-04-02T01:24:58.474Z,0.70
2023-04-02T01:28:19.717Z,0.95
2023-04-02T01:30:56.066Z,0.80
2023-04-02T01:33:35.374Z,0.80
2023-04-02T01:36:26.423Z,0.90
2023-04-02T01:39:17.219Z,0.95
2023-04-02T01:41:59.403Z,0.80
2023-04-02T01:44:50.018Z,0.95
2023-04-02T01:47:27.424Z,0.80
2023-04-02T01:50:14.787Z,0.70
2023-04-02T01:52:51.752Z,0.73
2023-04-02T01:55:48.860Z,0.70
2023-04-02T01:58:28.076Z,0.77
2023-04-02T02:01:17.485Z,0.70
2023-04-02T02:03:51.064Z,0.90
2023-04-02T02:06:24.529Z,0.85
2023-04-02T02:09:04.343Z,0.90
2023-04-02T02:11:37.555Z,0.93
2023-04-02T02:14:16.929Z,0.97
2023-04-02T02:16:50.333Z,0.70
2023-04-02T02:19:45.798Z,0.77
2023-04-02T02:22:29.472Z,0.98
2023-04-02T02:25:11.306Z,1.02
2023-04-02T02:27:49.809Z,0.90
2023-04-02T02:30:38.290Z,1.00
2023-04-02T02:33:15.358Z,1.15
2023-04-02T02:35:57.505Z,1.00
2023-04-02T02:38:35.171Z,1.08
2023-04-02T02:41:27.046Z,0.90
2023-04-02T02:44:10.556Z,1.00
2023-04-02T02:46:50.480Z,0.70
2023-04-02T02:49:29.394Z,1.15
2023-04-02T02:52:13.112Z,1.20
2023-04-02T02:54:58.078Z,1.00
2023-04-02T02:57:38.965Z,1.08
2023-04-02T03:00:11.993Z,1.10
2023-04-02T03:02:46.534Z,1.20
2023-04-02T03:05:24.122Z,1.10
2023-04-02T03:08:02.008Z,1.38
2023-04-02T03:10:43.494Z,1.20
2023-04-02T03:13:23.802Z,1.00
2023-04-02T03:16:12.939Z,1.20
2023-04-02T03:18:58.582Z,1.33
2023-04-02T03:21:31.419Z,1.02
2023-04-02T03:24:18.976Z,1.23
2023-04-02T03:27:25.630Z,1.38
2023-04-02T03:30:06.735Z,1.35
2023-04-02T03:32:43.802Z,1.38
2023-04-02T03:35:26.559Z,1.30
2023-04-02T03:38:05.548Z,1.48
2023-04-02T03:40:48.329Z,1.30
2023-04-02T03:43:25.577Z,1.30
2023-04-02T03:46:34.268Z,1.33
2023-04-02T03:49:24.409Z,1.55
2023-04-02T03:52:20.232Z,1.40
2023-04-02T03:54:56.347Z,1.50
2023-04-02T03:57:36.984Z,1.35
2023-04-02T04:00:16.900Z,1.70
2023-04-02T04:02:59.240Z,1.73
2023-04-02T04:05:43.960Z,1.30
2023-04-02T04:08:26.963Z,1.30
2023-04-02T04:11:03.850Z,1.70
2023-04-02T04:13:47.128Z,1.40
2023-04-02T04:16:26.721Z,1.42
2023-04-02T04:19:21.997Z,1.48
2023-04-02T04:22:09.870Z,1.88
2023-04-02T04:24:45.670Z,1.95
2023-04-02T04:27:33.809Z,1.80
2023-04-02T04:30:15.015Z,1.77
2023-04-02T04:32:58.139Z,1.73
2023-04-02T04:35:37.232Z,1.77
2023-04-02T04:38:17.537Z,1.77
2023-04-02T04:41:05.099Z,1.80
2023-04-02T04:44:01.079Z,1.88
2023-04-02T04:46:42.553Z,1.90
2023-04-02T04:49:21.005Z,1.73
2023-04-02T04:52:22.521Z,1.80
2023-04-02T04:54:56.571Z,1.70
2023-04-02T04:57:35.395Z,1.70
2023-04-02T05:00:45.005Z,1.70
2023-04-02T05:03:33.554Z,1.60
2023-04-02T05:06:19.794Z,1.90
2023-04-02T05:08:56.512Z,1.70
2023-04-02T05:11:45.839Z,1.80
2023-04-02T05:14:34.072Z,1.85
2023-04-02T05:17:26.338Z,1.65
2023-04-02T05:20:38.502Z,1.67
2023-04-02T05:23:21.226Z,1.98
2023-04-02T05:26:12.168Z,1.77
2023-04-02T05:28:51.875Z,1.67
2023-04-02T05:31:44.200Z,2.03
2023-04-02T05:34:25.992Z,1.90
2023-04-02T05:37:00.460Z,1.88
2023-04-02T05:39:33.021Z,1.83
2023-04-02T05:42:15.408Z,1.80
2023-04-02T05:45:16.584Z,1.85
2023-04-02T05:47:52.317Z,1.90
2023-04-02T05:50:37.635Z,1.88
2023-04-02T05:53:30.691Z,1.60
2023-04-02T05:56:15.557Z,1.77
2023-04-02T05:58:56.028Z,1.52
2023-04-02T06:02:03.586Z,1.42
2023-04-02T06:04:50.326Z,1.30
2023-04-02T06:07:28.511Z,1.50
2023-04-02T06:10:10.300Z,1.40
2023-04-02T06:12:52.428Z,1.23
2023-04-02T06:15:26.010Z,1.50
2023-04-02T06:18:35.260Z,1.38
2023-04-02T06:21:12.728Z,1.50
2023-04-02T06:23:52.407Z,1.40
2023-04-02T06:26:33.884Z,1.25
2023-04-02T06:29:20.214Z,1.15
2023-04-02T06:32:01.469Z,1.20
2023-04-02T06:34:38.228Z,1.20
2023-04-02T06:37:35.846Z,1.35
2023-04-02T06:40:47.429Z,0.98
2023-04-02T06:43:45.939Z,1.00
2023-04-02T06:46:45.425Z,0.98
2023-04-02T06:49:25.970Z,1.10
2023-04-02T06:54:38.373Z,1.27
2023-04-02T06:57:14.737Z,1.05
2023-04-02T06:59:51.020Z,1.00
2023-04-02T07:02:37.088Z,1.40
2023-04-02T07:05:13.172Z,1.10
2023-04-02T07:07:50.970Z,1.20
2023-04-02T07:10:24.202Z,1.15
2023-04-02T07:15:30.933Z,1.20
2023-04-02T07:18:04.671Z,1.33
2023-04-02T07:20:37.924Z,1.10
2023-04-02T07:23:16.518Z,1.30
2023-04-02T07:25:57.121Z,1.38
2023-04-02T07:28:30.216Z,1.33
2023-04-02T07:31:02.908Z,1.20
2023-04-02T07:33:35.478Z,1.48
2023-04-02T07:36:08.181Z,1.27
2023-04-02T07:38:41.084Z,1.13
2023-04-02T07:41:19.954Z,1.40
2023-04-02T07:43:53.612Z,1.05
2023-04-02T07:48:59.779Z,1.48
2023-04-02T07:51:32.939Z,1.37
2023-04-02T07:54:05.511Z,2.72
2023-04-02T07:56:38.637Z,2.90
2023-04-02T07:59:11.417Z,4.32
2023-04-02T08:01:44.140Z,4.78
2023-04-02T08:04:19.817Z,6.15
2023-04-02T08:06:53.134Z,7.28
2023-04-02T08:11:58.270Z,8.25
2023-04-02T08:14:30.703Z,9.27
2023-04-02T08:17:03.078Z,10.70
2023-04-02T08:19:47.795Z,10.77
2023-04-02T08:22:27.732Z,10.88
2023-04-02T08:25:01.611Z,10.65
2023-04-02T08:27:35.413Z,10.60
2023-04-02T08:30:10.221Z,11.65
2023-04-02T08:32:43.190Z,10.77
2023-04-02T08:35:17.202Z,11.15
2023-04-02T08:37:49.709Z,11.02
2023-04-02T08:40:36.538Z,10.40
2023-04-02T08:43:15.785Z,11.18
2023-04-02T08:46:17.657Z,11.18
2023-04-02T08:48:58.409Z,11.15
2023-04-02T08:51:34.779Z,11.25
2023-04-02T08:54:38.071Z,9.73
2023-04-02T08:57:13.582Z,10.00
2023-04-02T08:59:47.212Z,10.85
2023-04-02T09:02:40.808Z,10.63
2023-04-02T09:05:34.710Z,10.27
2023-04-02T09:08:22.622Z,10.02
2023-04-02T09:11:19.215Z,9.45
2023-04-02T09:13:57.394Z,10.15
2023-04-02T09:16:49.729Z,9.93
2023-04-02T09:19:31.575Z,9.93
2023-04-02T09:22:07.809Z,10.13
2023-04-02T09:24:42.553Z,9.27
2023-04-02T09:27:24.974Z,9.45
2023-04-02T09:30:18.957Z,9.67
2023-04-02T09:32:54.281Z,9.55
2023-04-02T09:35:29.327Z,9.45
2023-04-02T09:38:07.786Z,9.20
2023-04-02T09:41:05.760Z,8.10
2023-04-02T09:43:39.213Z,8.98
2023-04-02T09:46:15.591Z,8.27
2023-04-02T09:48:58.523Z,8.40
2023-04-02T09:51:34.773Z,8.60
2023-04-02T09:54:14.314Z,7.70
2023-04-02T09:57:03.430Z,7.82
2023-04-02T09:59:36.163Z,7.85
2023-04-02T10:02:28.826Z,7.47
2023-04-02T10:05:04.841Z,7.63
2023-04-02T10:07:43.836Z,7.30
2023-04-02T10:10:41.916Z,7.60
2023-04-02T10:13:21.038Z,7.47
2023-04-02T10:15:59.470Z,6.63
2023-04-02T10:18:44.165Z,7.50
2023-04-02T10:21:25.294Z,7.10
2023-04-02T10:23:59.676Z,7.18
2023-04-02T10:26:32.016Z,6.70
2023-04-02T10:29:18.378Z,7.05
2023-04-02T10:32:03.066Z,6.28
2023-04-02T10:34:58.702Z,6.10
2023-04-02T10:37:47.293Z,5.85
2023-04-02T10:40:35.691Z,5.97
2023-04-02T10:43:27.495Z,6.18
2023-04-02T10:49:42.719Z,5.93
2023-04-02T10:52:26.852Z,5.85
2023-04-02T10:55:16.792Z,5.32
2023-04-02T10:57:52.124Z,5.65
2023-04-02T11:00:28.228Z,5.30
2023-04-02T11:03:09.465Z,5.13
2023-04-02T11:05:53.596Z,4.85
2023-04-02T11:08:41.697Z,4.30
2023-04-02T11:11:49.181Z,4.78
2023-04-02T11:14:28.933Z,4.80
2023-04-02T11:17:04.807Z,4.97
2023-04-02T11:19:37.838Z,4.38
2023-04-02T11:22:23.397Z,4.53
2023-04-02T11:24:57.533Z,4.13
2023-04-02T11:27:32.828Z,4.13
2023-04-02T11:30:24.651Z,4.60
2023-04-02T11:33:35.872Z,4.20
2023-04-02T11:36:46.635Z,3.80
2023-04-02T11:39:55.210Z,3.88
2023-04-02T11:42:33.548Z,3.92
2023-04-02T11:45:23.806Z,3.95
2023-04-02T11:48:02.556Z,3.97
2023-04-02T11:50:43.157Z,3.90
2023-04-02T11:53:21.694Z,3.65
2023-04-02T11:55:56.729Z,3.70
2023-04-02T11:59:02.419Z,3.25
2023-04-02T12:01:59.165Z,3.60
2023-04-02T12:04:56.668Z,3.40
2023-04-02T12:07:46.886Z,3.05
2023-04-02T12:10:28.416Z,3.25
2023-04-02T12:13:00.911Z,3.20
2023-04-02T12:15:46.522Z,3.40
2023-04-02T12:18:24.356Z,3.38
2023-04-02T12:20:57.578Z,3.10
2023-04-02T12:23:33.424Z,3.20
2023-04-02T12:26:23.086Z,2.90
2023-04-02T12:28:56.429Z,2.90
2023-04-02T12:34:02.498Z,2.63
2023-04-02T12:36:36.214Z,2.60
2023-04-02T12:39:17.420Z,2.50
2023-04-02T12:41:50.031Z,2.60
2023-04-02T12:44:28.605Z,2.70
2023-04-02T12:47:01.228Z,2.50
2023-04-02T12:49:39.608Z,2.53
2023-04-02T12:52:17.577Z,2.53
2023-04-02T12:54:53.245Z,2.35
2023-04-02T12:57:25.962Z,2.55
2023-04-02T13:00:22.512Z,2.33
2023-04-02T13:03:18.274Z,2.78
2023-04-02T13:05:53.358Z,2.28
2023-04-02T13:08:29.568Z,1.85
2023-04-02T13:11:03.991Z,2.20
2023-04-02T13:13:39.795Z,2.38
2023-04-02T13:16:15.173Z,2.03
2023-04-02T13:18:49.578Z,1.98
2023-04-02T13:21:29.943Z,1.95
2023-04-02T13:24:02.333Z,1.92
2023-04-02T13:26:34.769Z,2.00
2023-04-02T13:29:26.817Z,1.98
2023-04-02T13:32:08.063Z,2.03
2023-04-02T13:34:40.860Z,1.88
2023-04-02T13:37:13.396Z,2.30
2023-04-02T13:39:45.750Z,2.00
2023-04-02T13:42:19.436Z,1.80
2023-04-02T13:44:51.793Z,1.80
2023-04-02T13:47:24.834Z,2.13
2023-04-02T13:49:57.238Z,1.65
2023-04-02T13:52:29.861Z,2.13
2023-04-02T13:55:03.369Z,1.80
2023-04-02T14:00:08.915Z,1.67
2023-04-02T14:02:47.596Z,2.10
2023-04-02T14:05:57.219Z,1.60
2023-04-02T14:08:56.042Z,1.83
2023-04-02T14:11:52.522Z,1.50
2023-04-02T14:14:50.019Z,2.00
2023-04-02T14:17:38.408Z,1.58
2023-04-02T14:20:20.810Z,1.90
2023-04-02T14:23:05.738Z,1.47
2023-04-02T14:26:15.425Z,1.60
2023-04-02T14:28:50.771Z,2.20
2023-04-02T14:31:43.211Z,1.77
2023-04-02T14:34:43.192Z,1.70
2023-04-02T14:37:45.750Z,2.10
2023-04-02T14:40:37.230Z,1.60
2023-04-02T14:43:15.998Z,2.00
2023-04-02T14:45:51.759Z,1.60
2023-04-02T14:48:33.044Z,1.73
2023-04-02T14:51:14.836Z,1.50
2023-04-02T14:54:11.707Z,1.60
2023-04-02T14:56:57.245Z,1.58
2023-04-02T14:59:30.010Z,1.83
2023-04-02T15:02:41.553Z,1.77
2023-04-02T15:05:32.570Z,1.77
2023-04-02T15:08:24.702Z,1.45
2023-04-02T15:11:10.518Z,1.70
2023-04-02T15:13:50.022Z,2.17
2023-04-02T15:16:26.770Z,1.70
2023-04-02T15:19:01.294Z,1.65
2023-04-02T15:22:09.525Z,1.85
2023-04-02T15:25:16.751Z,1.67
2023-04-02T15:28:30.271Z,1.90
2023-04-02T15:31:10.120Z,1.33
2023-04-02T15:33:44.072Z,1.85
2023-04-02T15:36:35.527Z,1.95
2023-04-02T15:39:28.497Z,1.73
2023-04-02T15:42:25.674Z,1.70
2023-04-02T15:45:10.938Z,1.80
2023-04-02T15:47:52.578Z,2.30
2023-04-02T15:50:50.455Z,1.75
2023-04-02T15:53:43.593Z,1.60
2023-04-02T15:56:48.988Z,1.55
2023-04-02T15:59:59.562Z,2.10
2023-04-02T16:02:34.785Z,1.70
2023-04-02T16:05:27.353Z,1.50
2023-04-02T16:08:31.782Z,1.60
2023-04-02T16:11:13.304Z,1.70
2023-04-02T16:13:47.391Z,1.52
2023-04-02T16:16:26.909Z,1.38
2023-04-02T16:19:05.557Z,1.63
2023-04-02T16:21:58.933Z,1.70
2023-04-02T16:24:31.381Z,1.80
2023-04-02T16:27:15.044Z,1.60
2023-04-02T16:30:07.892Z,1.30
2023-04-02T16:32:55.687Z,1.52
2023-04-02T16:36:16.660Z,1.70
2023-04-02T16:39:32.633Z,1.67
2023-04-02T16:42:05.544Z,1.75
2023-04-02T16:45:04.482Z,1.80
2023-04-02T16:47:59.960Z,1.85
2023-04-02T16:50:57.126Z,1.67
2023-04-02T16:54:00.627Z,2.05
2023-04-02T16:56:52.710Z,2.05
2023-04-02T16:59:53.411Z,2.33
2023-04-02T17:02:35.132Z,1.95
2023-04-02T17:05:11.010Z,1.75
2023-04-02T17:08:15.513Z,1.92
2023-04-02T17:11:01.974Z,2.13
2023-04-02T17:14:06.176Z,1.83
2023-04-02T17:16:46.749Z,1.85
2023-04-02T17:19:20.914Z,1.67
2023-04-02T17:21:58.809Z,1.38
2023-04-02T17:24:39.022Z,1.83
2023-04-02T17:27:30.218Z,1.77
2023-04-02T17:30:13.816Z,1.77
2023-04-02T17:32:46.412Z,1.88
2023-04-02T17:35:32.298Z,2.00
2023-04-02T17:38:20.981Z,1.85
2023-04-02T17:41:22.634Z,1.60
2023-04-02T17:44:36.815Z,1.67
2023-04-02T17:50:19.646Z,1.55
2023-04-02T17:53:34.109Z,1.58
2023-04-02T17:56:09.516Z,1.70
2023-04-02T17:59:00.507Z,1.60
2023-04-02T18:01:36.784Z,1.63
2023-04-02T18:04:39.396Z,1.60
2023-04-02T18:07:34.945Z,1.58
2023-04-02T18:10:41.276Z,1.80
2023-04-02T18:13:46.356Z,1.50
2023-04-02T18:16:32.444Z,1.83
2023-04-02T18:19:17.242Z,1.50
2023-04-02T18:22:07.966Z,1.80
2023-04-02T18:25:02.375Z,1.52
2023-04-02T18:28:07.250Z,1.45
2023-04-02T18:30:43.898Z,1.52
2023-04-02T18:33:30.528Z,1.80
2023-04-02T18:36:23.672Z,1.90
2023-04-02T18:39:20.934Z,1.67
2023-04-02T18:42:02.555Z,1.90
2023-04-02T18:44:38.899Z,1.60
2023-04-02T18:47:22.318Z,1.85
2023-04-02T18:50:18.690Z,2.58
2023-04-02T18:52:51.157Z,1.95
2023-04-02T18:55:30.775Z,1.90
2023-04-02T18:58:15.031Z,2.13
2023-04-02T19:00:50.020Z,1.80
2023-04-02T19:03:36.757Z,2.05
2023-04-02T19:06:19.345Z,1.75
2023-04-02T19:08:58.856Z,1.73
2023-04-02T19:11:32.143Z,2.28
2023-04-02T19:14:13.053Z,1.80
2023-04-02T19:16:51.328Z,2.40
2023-04-02T19:19:27.213Z,2.10
2023-04-02T19:22:24.274Z,2.20
2023-04-02T19:25:36.721Z,1.60
2023-04-02T19:28:13.617Z,1.90
2023-04-02T19:31:05.733Z,2.03
2023-04-02T19:34:02.457Z,2.10
2023-04-02T19:37:09.781Z,2.13
2023-04-02T19:40:05.104Z,2.10
2023-04-02T19:42:46.815Z,1.83
2023-04-02T19:45:26.687Z,2.28
2023-04-02T19:48:03.733Z,2.20
2023-04-02T19:50:36.698Z,1.90
2023-04-02T19:53:09.495Z,2.00
2023-04-02T19:55:42.860Z,1.90
2023-04-02T19:58:36.142Z,1.98
2023-04-02T20:01:09.465Z,1.92
2023-04-02T20:03:42.448Z,2.10
2023-04-02T20:06:15.657Z,2.00
2023-04-02T20:08:48.076Z,2.10
2023-04-02T20:11:21.022Z,2.00
2023-04-02T20:13:54.536Z,2.35
2023-04-02T20:16:28.017Z,2.20
2023-04-02T20:19:00.839Z,2.15
2023-04-02T20:21:38.457Z,2.45
2023-04-02T20:24:11.462Z,2.40
2023-04-02T20:26:44.468Z,2.10
2023-04-02T20:29:17.025Z,2.20
2023-04-02T20:31:53.081Z,2.05
2023-04-02T20:34:26.105Z,2.10
2023-04-02T20:36:58.653Z,1.98
2023-04-02T20:39:31.108Z,2.10
2023-04-02T20:42:03.728Z,2.22
2023-04-02T20:44:36.387Z,2.08
2023-04-02T20:47:10.665Z,2.38
2023-04-02T20:49:43.346Z,2.47
2023-04-02T20:52:15.741Z,2.15
2023-04-02T20:54:48.089Z,2.43
2023-04-02T20:57:21.971Z,2.30
2023-04-02T20:59:54.663Z,2.08
2023-04-02T21:02:27.092Z,2.25
2023-04-02T21:04:59.370Z,2.50
2023-04-02T21:07:31.712Z,1.92
2023-04-02T21:10:05.272Z,2.37
2023-04-02T21:12:38.854Z,2.17
2023-04-02T21:15:13.701Z,1.88
2023-04-02T21:17:47.608Z,2.00
2023-04-02T21:20:21.221Z,2.00
2023-04-02T21:22:53.960Z,2.30
2023-04-02T21:25:26.415Z,1.95
2023-04-02T21:27:58.799Z,2.30
2023-04-02T21:30:33.160Z,2.07
2023-04-02T21:33:06.403Z,2.22
2023-04-02T21:38:11.565Z,1.90
2023-04-02T21:40:44.089Z,2.05
2023-04-02T21:43:17.944Z,2.20
2023-04-02T21:45:50.382Z,1.87
2023-04-02T21:48:23.067Z,2.08
2023-04-02T21:50:56.008Z,2.38
2023-04-02T21:53:28.666Z,2.28
2023-04-02T21:56:06.539Z,1.98
2023-04-02T21:58:39.059Z,2.05
2023-04-02T22:01:23.927Z,1.90
2023-04-02T22:04:02.010Z,2.10
2023-04-02T22:06:40.409Z,2.00
2023-04-02T22:09:16.480Z,1.90
2023-04-02T22:11:54.165Z,1.60
2023-04-02T22:14:28.614Z,1.80
2023-04-02T22:17:01.333Z,1.85
2023-04-02T22:19:33.957Z,2.20
2023-04-02T22:22:06.519Z,1.90
2023-04-02T22:24:39.503Z,1.73
2023-04-02T22:27:12.625Z,1.77
2023-04-02T22:29:46.805Z,2.20
2023-04-02T22:32:19.094Z,1.80
2023-04-02T22:34:51.622Z,1.70
2023-04-02T22:37:25.211Z,2.07
2023-04-02T22:39:57.675Z,1.88
2023-04-02T22:42:30.463Z,1.60
2023-04-02T22:45:05.265Z,1.75
2023-04-02T22:47:37.744Z,2.05
2023-04-02T22:50:10.474Z,1.67
2023-04-02T22:52:44.286Z,1.90
2023-04-02T22:55:17.076Z,1.70
2023-04-02T22:57:49.543Z,2.05
2023-04-02T23:00:23.312Z,1.77
2023-04-02T23:02:56.877Z,1.52
2023-04-02T23:05:29.306Z,1.83
2023-04-02T23:08:02.035Z,1.40
2023-04-02T23:10:34.547Z,1.77
2023-04-02T23:13:07.691Z,1.70
2023-04-02T23:15:39.996Z,1.60
2023-04-02T23:18:12.538Z,1.77
2023-04-02T23:20:45.045Z,1.75
2023-04-02T23:23:17.973Z,1.50
2023-04-02T23:25:50.352Z,1.77
2023-04-02T23:28:23.416Z,1.33
2023-04-02T23:30:57.468Z,2.00
2023-04-02T23:33:30.253Z,1.70
2023-04-02T23:36:28.739Z,1.70
2023-04-02T23:39:04.840Z,1.67
2023-04-02T23:41:40.136Z,1.60
2023-04-02T23:44:13.140Z,1.60
2023-04-02T23:49:21.562Z,1.55
2023-04-02T23:51:58.486Z,1.60
2023-04-02T23:54:31.328Z,1.80
2023-04-02T23:57:05.387Z,1.83
2023-04-02T23:59:39.293Z,1.83
